Time;durP1;ratioP1;P1;durP2;ratioP2;P2;SDS_P1;SDS_P2;PMS_P1;PMS_P2;Temp;Humidity;BMP_temperature;BMP_pressure;BME280_temperature;BME280_humidity;BME280_pressure;Samples;Min_cycle;Max_cycle;Signal;HPM_P1;HPM_P2
2022/07/04 00:02:24;;;;;;;5.70;4.07;;;11.80;80.10;;;;;;5021144;28;20541;-64
2022/07/04 00:04:50;;;;;;;4.57;3.27;;;11.80;80.50;;;;;;5005727;28;20048;-64
2022/07/04 00:07:16;;;;;;;6.27;3.53;;;11.90;80.90;;;;;;5003936;28;20060;-65
2022/07/04 00:09:42;;;;;;;4.80;3.10;;;11.90;80.80;;;;;;4988816;28;20077;-65
2022/07/04 00:12:08;;;;;;;3.73;3.07;;;12.00;80.70;;;;;;4988960;28;20050;-65
2022/07/04 00:14:35;;;;;;;5.13;3.22;;;11.90;80.60;;;;;;5005516;28;20207;-65
2022/07/04 00:17:01;;;;;;;4.20;3.50;;;12.00;80.30;;;;;;5004998;28;20054;-65
2022/07/04 00:19:26;;;;;;;5.60;3.53;;;11.90;80.20;;;;;;5004773;28;20041;-64
2022/07/04 00:21:52;;;;;;;5.23;3.30;;;11.90;80.70;;;;;;5004699;28;20133;-65
2022/07/04 00:24:18;;;;;;;6.03;3.70;;;11.90;80.40;;;;;;5005189;28;20402;-65
2022/07/04 00:26:43;;;;;;;4.43;3.17;;;11.90;80.30;;;;;;5003221;28;20201;-65
2022/07/04 00:29:09;;;;;;;4.93;3.00;;;11.80;80.20;;;;;;5004017;28;20037;-65
2022/07/04 00:31:35;;;;;;;4.10;3.37;;;11.80;80.20;;;;;;5004447;28;20511;-65
2022/07/04 00:34:01;;;;;;;4.33;3.53;;;11.80;80.10;;;;;;5005385;28;20121;-65
2022/07/04 00:36:27;;;;;;;8.95;4.60;;;11.80;80.20;;;;;;5015841;28;20061;-66
2022/07/04 00:38:53;;;;;;;5.07;3.90;;;11.80;80.50;;;;;;5005267;28;20348;-66
2022/07/04 00:41:18;;;;;;;8.50;3.57;;;11.80;80.60;;;;;;5021280;28;20049;-66
2022/07/04 00:43:58;;;;;;;5.30;3.73;;;11.80;80.80;;;;;;4996157;28;20459;-66
2022/07/04 00:46:24;;;;;;;7.95;5.80;;;11.80;81.00;;;;;;5001890;28;20323;-66
2022/07/04 00:48:50;;;;;;;9.43;5.80;;;11.90;81.20;;;;;;4999159;28;20038;-66
2022/07/04 00:51:16;;;;;;;7.80;5.13;;;11.90;81.80;;;;;;5004395;28;20301;-66
2022/07/04 00:53:42;;;;;;;7.88;5.45;;;12.00;83.10;;;;;;5005405;28;20041;-66
2022/07/04 00:56:08;;;;;;;9.40;6.93;;;12.00;83.70;;;;;;4987622;28;20561;-66
2022/07/04 00:58:34;;;;;;;8.70;5.33;;;12.10;83.80;;;;;;5003992;28;20072;-66
2022/07/04 01:01:00;;;;;;;7.22;5.60;;;12.10;84.70;;;;;;4973241;28;20057;-66
2022/07/04 01:03:25;;;;;;;8.50;5.47;;;12.10;85.00;;;;;;4992790;28;20042;-66
2022/07/04 01:05:51;;;;;;;6.47;5.60;;;12.20;85.00;;;;;;4972008;28;20103;-66
2022/07/04 01:08:17;;;;;;;6.90;5.43;;;12.20;84.60;;;;;;4970680;28;20073;-66
2022/07/04 01:10:42;;;;;;;8.07;5.30;;;12.10;83.90;;;;;;4986791;28;20437;-66
2022/07/04 01:13:18;;;;;;;7.90;7.10;;;12.10;83.50;;;;;;5003501;28;20099;-66
2022/07/04 01:15:43;;;;;;;;;;;12.20;83.80;;;;;;5003536;28;20053;-66
2022/07/04 01:18:09;;;;;;;8.97;4.43;;;12.10;84.50;;;;;;5003746;28;19917;-66
2022/07/04 01:20:37;;;;;;;5.93;5.30;;;12.10;84.50;;;;;;4998839;28;20103;-66
2022/07/04 01:23:03;;;;;;;6.82;4.50;;;12.10;84.30;;;;;;4999782;28;20422;-66
2022/07/04 01:25:29;;;;;;;8.00;5.05;;;12.20;83.80;;;;;;5001474;28;20452;-66
2022/07/04 01:27:54;;;;;;;7.07;5.03;;;12.20;83.70;;;;;;5004434;28;20072;-66
2022/07/04 01:30:20;;;;;;;6.63;6.03;;;12.20;83.80;;;;;;4979260;28;20465;-65
2022/07/04 01:32:46;;;;;;;8.37;5.47;;;12.20;84.20;;;;;;5009842;28;20402;-66
2022/07/04 01:35:12;;;;;;;6.40;5.80;;;12.20;84.50;;;;;;5005223;28;20053;-66
2022/07/04 01:37:38;;;;;;;5.78;4.55;;;12.20;84.20;;;;;;4998545;28;20053;-66
2022/07/04 01:40:04;;;;;;;9.68;8.18;;;12.20;83.80;;;;;;5007229;28;20045;-66
2022/07/04 01:42:30;;;;;;;7.65;5.93;;;12.30;83.90;;;;;;5007534;28;20411;-65
2022/07/04 01:44:56;;;;;;;6.17;5.40;;;12.30;83.90;;;;;;5007295;28;20125;-65
2022/07/04 01:47:21;;;;;;;8.50;5.70;;;12.30;83.80;;;;;;5007685;28;20407;-65
2022/07/04 01:49:47;;;;;;;8.10;7.40;;;12.40;84.00;;;;;;5005907;28;20132;-65
2022/07/04 01:52:15;;;;;;;7.20;6.50;;;12.40;83.80;;;;;;5006907;28;20498;-65
2022/07/04 01:54:41;;;;;;;6.28;5.30;;;12.40;83.80;;;;;;5006516;28;20445;-65
2022/07/04 01:57:07;;;;;;;8.77;6.00;;;12.40;83.80;;;;;;5015365;28;20084;-65
2022/07/04 02:02:17;;;;;;;6.13;4.88;;;12.40;83.80;;;;;;5024474;28;20541;-65
2022/07/04 02:04:43;;;;;;;6.37;4.97;;;12.40;83.70;;;;;;5008712;28;20077;-65
2022/07/04 02:07:09;;;;;;;5.73;4.63;;;12.30;83.70;;;;;;5007742;28;20038;-66
2022/07/04 02:09:34;;;;;;;5.30;4.80;;;12.30;83.80;;;;;;5008302;28;20521;-66
2022/07/04 02:14:44;;;;;;;5.30;3.53;;;12.30;83.70;;;;;;5007834;28;20064;-66
2022/07/04 02:17:11;;;;;;;5.30;4.07;;;12.30;83.60;;;;;;5007713;28;20490;-66
2022/07/04 02:19:37;;;;;;;5.65;4.65;;;12.30;83.50;;;;;;5023766;28;20050;-65
2022/07/04 02:22:03;;;;;;;4.50;4.10;;;12.20;83.70;;;;;;4987919;28;20053;-65
2022/07/04 02:24:28;;;;;;;5.95;3.40;;;12.30;83.70;;;;;;5000568;28;20210;-66
2022/07/04 02:26:55;;;;;;;5.47;4.50;;;12.20;83.70;;;;;;5006879;28;20171;-66
2022/07/04 02:29:20;;;;;;;5.22;3.92;;;12.20;83.60;;;;;;5004295;28;20077;-66
2022/07/04 02:31:46;;;;;;;4.20;3.80;;;12.20;83.80;;;;;;5007294;28;20414;-65
2022/07/04 02:34:12;;;;;;;7.63;3.83;;;12.20;83.80;;;;;;4991061;28;20093;-66
2022/07/04 02:36:38;;;;;;;5.00;3.13;;;12.20;83.80;;;;;;4987611;28;20169;-66
2022/07/04 02:39:07;;;;;;;7.67;3.90;;;12.10;83.70;;;;;;4981557;28;20572;-66
2022/07/04 02:41:33;;;;;;;8.23;4.90;;;12.10;83.70;;;;;;5001742;28;20046;-66
2022/07/04 02:43:59;;;;;;;6.78;6.25;;;12.10;83.80;;;;;;5007568;28;20042;-66
2022/07/04 02:46:25;;;;;;;4.67;4.20;;;12.10;84.10;;;;;;4990706;28;20494;-66
2022/07/04 02:48:51;;;;;;;9.43;4.93;;;12.10;84.10;;;;;;5011313;28;20046;-66
2022/07/04 02:51:17;;;;;;;7.87;5.63;;;12.10;84.10;;;;;;5003943;28;20045;-65
2022/07/04 02:53:42;;;;;;;4.73;4.30;;;12.10;84.20;;;;;;5007249;28;20053;-64
2022/07/04 02:56:08;;;;;;;7.00;4.80;;;12.00;84.10;;;;;;5007547;28;20073;-65
2022/07/04 02:58:34;;;;;;;5.75;4.03;;;12.00;84.10;;;;;;5006655;28;20057;-65
2022/07/04 03:01:00;;;;;;;7.93;4.27;;;12.00;84.10;;;;;;4990854;28;20511;-66
2022/07/04 03:03:27;;;;;;;7.00;5.20;;;12.00;84.20;;;;;;4998556;28;20041;-66
2022/07/04 03:05:53;;;;;;;6.15;5.70;;;12.00;84.30;;;;;;5002500;28;20289;-66
2022/07/04 03:08:19;;;;;;;8.68;7.32;;;12.00;84.40;;;;;;5009892;28;20172;-66
2022/07/04 03:10:44;;;;;;;9.57;6.97;;;12.00;84.70;;;;;;5005602;28;20116;-66
2022/07/04 03:13:10;;;;;;;5.77;5.23;;;12.00;84.70;;;;;;4990227;28;20046;-65
2022/07/04 03:15:36;;;;;;;9.83;6.77;;;12.00;84.70;;;;;;5005915;28;20082;-66
2022/07/04 03:18:02;;;;;;;9.80;8.90;;;12.10;85.00;;;;;;4986102;28;20042;-66
2022/07/04 03:20:27;;;;;;;10.17;9.17;;;12.20;85.20;;;;;;5001333;28;20465;-66
2022/07/04 03:22:54;;;;;;;10.73;7.33;;;12.40;85.70;;;;;;5006086;28;20041;-64
2022/07/04 03:25:20;;;;;;;9.23;5.87;;;12.50;85.70;;;;;;5006813;28;20049;-64
2022/07/04 03:27:46;;;;;;;7.13;5.90;;;12.60;85.70;;;;;;5006085;28;20281;-64
2022/07/04 03:30:13;;;;;;;6.77;5.57;;;12.70;85.50;;;;;;4988590;28;20342;-65
2022/07/04 03:32:39;;;;;;;7.15;5.90;;;12.70;85.90;;;;;;4986508;28;20376;-65
2022/07/04 03:35:05;;;;;;;10.37;5.40;;;12.80;85.80;;;;;;5019300;28;20128;-65
2022/07/04 03:37:31;;;;;;;7.87;5.80;;;12.80;86.40;;;;;;5006252;28;20305;-65
2022/07/04 03:39:56;;;;;;;8.57;5.37;;;12.80;86.40;;;;;;5005724;28;20296;-65
2022/07/04 03:42:22;;;;;;;7.10;6.20;;;12.90;86.10;;;;;;4990810;28;20297;-65
2022/07/04 03:44:48;;;;;;;9.03;5.63;;;13.00;86.00;;;;;;5005710;28;20081;-65
2022/07/04 03:47:14;;;;;;;6.57;4.00;;;13.00;85.80;;;;;;5005400;28;20038;-65
2022/07/04 03:49:40;;;;;;;5.70;4.47;;;13.00;85.90;;;;;;5000659;28;20034;-65
2022/07/04 03:52:06;;;;;;;7.93;4.93;;;13.10;85.70;;;;;;5005569;28;20041;-65
2022/07/04 03:54:32;;;;;;;4.27;3.53;;;13.10;85.80;;;;;;4980260;28;20293;-64
2022/07/04 03:56:57;;;;;;;7.20;3.60;;;13.20;85.70;;;;;;5006244;28;20125;-65
2022/07/04 03:59:23;;;;;;;6.97;4.70;;;13.20;85.60;;;;;;5006879;28;20506;-64
2022/07/04 04:01:49;;;;;;;7.43;5.07;;;13.30;85.50;;;;;;4989048;28;20045;-64
2022/07/04 04:06:59;;;;;;;8.87;7.43;;;13.40;85.40;;;;;;4998189;28;20053;-64
2022/07/04 04:09:24;;;;;;;9.60;6.17;;;13.50;85.70;;;;;;5011726;28;20759;-65
2022/07/04 04:11:53;;;;;;;7.10;6.40;;;13.60;85.60;;;;;;5002447;28;20428;-65
2022/07/04 04:14:19;;;;;;;6.60;5.33;;;13.70;85.60;;;;;;5006362;28;20049;-65
2022/07/04 04:16:45;;;;;;;6.27;5.67;;;13.80;85.60;;;;;;4989326;28;20280;-65
2022/07/04 04:19:11;;;;;;;7.27;5.57;;;13.90;85.90;;;;;;4988613;28;20507;-65
2022/07/04 04:21:37;;;;;;;6.63;5.27;;;14.00;85.60;;;;;;5005323;28;20104;-65
2022/07/04 04:24:03;;;;;;;6.37;4.97;;;14.10;85.40;;;;;;5021799;28;20317;-65
2022/07/04 04:26:30;;;;;;;6.53;5.87;;;14.20;85.10;;;;;;5005019;28;20037;-65
2022/07/04 04:28:56;;;;;;;6.33;4.43;;;14.20;85.20;;;;;;5005098;28;20287;-65
2022/07/04 04:31:21;;;;;;;5.30;3.83;;;14.30;85.00;;;;;;5003671;28;20285;-65
2022/07/04 04:33:47;;;;;;;7.87;5.17;;;14.30;85.10;;;;;;4988917;28;20041;-65
2022/07/04 04:36:13;;;;;;;8.37;5.17;;;14.40;85.00;;;;;;4989185;28;20050;-65
2022/07/04 04:38:39;;;;;;;6.63;5.80;;;14.40;84.90;;;;;;4956350;28;20038;-65
2022/07/04 04:41:04;;;;;;;7.10;6.00;;;14.60;85.20;;;;;;5000583;28;20048;-66
2022/07/04 04:43:30;;;;;;;8.63;7.97;;;15.00;85.20;;;;;;5021827;28;20057;-66
2022/07/04 04:45:56;;;;;;;7.20;6.40;;;15.40;84.30;;;;;;4988199;28;20052;-66
2022/07/04 04:48:21;;;;;;;7.50;6.50;;;16.10;84.30;;;;;;4999042;28;20046;-66
2022/07/04 04:50:47;;;;;;;9.47;6.87;;;16.90;81.90;;;;;;4998722;28;20045;-66
2022/07/04 04:53:13;;;;;;;7.37;6.80;;;17.70;79.70;;;;;;5002852;28;20056;-66
2022/07/04 04:55:39;;;;;;;7.07;6.40;;;18.50;77.20;;;;;;4982810;28;20052;-66
2022/07/04 04:58:05;;;;;;;6.43;5.80;;;19.20;75.80;;;;;;4999235;28;20075;-66
2022/07/04 05:00:31;;;;;;;6.97;4.13;;;19.90;73.70;;;;;;5002141;28;20280;-64
2022/07/04 05:02:57;;;;;;;8.13;5.07;;;20.50;71.70;;;;;;4990692;28;20518;-65
2022/07/04 05:05:23;;;;;;;7.33;5.13;;;21.00;70.00;;;;;;5008317;28;20856;-65
2022/07/04 05:07:49;;;;;;;4.93;3.67;;;21.40;68.40;;;;;;4985942;28;20289;-65
2022/07/04 05:10:15;;;;;;;3.57;3.17;;;21.90;67.10;;;;;;5007653;28;20045;-65
2022/07/04 05:12:42;;;;;;;6.50;4.43;;;22.20;66.30;;;;;;5009229;28;20053;-66
2022/07/04 05:15:09;;;;;;;6.57;2.90;;;22.40;65.10;;;;;;5009105;28;20296;-66
2022/07/04 05:17:35;;;;;;;7.50;3.37;;;22.70;64.20;;;;;;5006970;28;20819;-66
2022/07/04 05:20:01;;;;;;;3.80;2.30;;;23.10;63.60;;;;;;5006196;28;20296;-66
2022/07/04 05:22:27;;;;;;;5.90;2.67;;;23.50;62.60;;;;;;5007250;28;20072;-66
2022/07/04 05:24:53;;;;;;;3.77;2.73;;;23.60;61.40;;;;;;4991959;28;20545;-66
2022/07/04 05:27:19;;;;;;;4.43;2.50;;;23.10;61.50;;;;;;5007769;28;20053;-66
2022/07/04 05:29:44;;;;;;;5.17;3.20;;;22.90;62.70;;;;;;5007502;28;20056;-67
2022/07/04 05:32:10;;;;;;;5.60;2.10;;;23.20;62.50;;;;;;5008002;28;20045;-67
2022/07/04 05:34:36;;;;;;;6.13;2.73;;;23.40;61.70;;;;;;5008272;28;20543;-66
2022/07/04 05:37:03;;;;;;;4.33;1.60;;;23.50;61.50;;;;;;5007801;28;20037;-67
2022/07/04 05:39:29;;;;;;;3.73;1.07;;;23.70;60.10;;;;;;5008691;28;20060;-64
2022/07/04 05:41:54;;;;;;;5.53;2.30;;;23.80;60.20;;;;;;5008066;28;20042;-64
2022/07/04 05:44:20;;;;;;;6.37;2.70;;;23.80;59.80;;;;;;4992875;28;20045;-65
2022/07/04 05:46:46;;;;;;;7.40;2.03;;;23.80;59.60;;;;;;5018910;28;20190;-66
2022/07/04 05:49:12;;;;;;;5.97;1.77;;;23.80;60.00;;;;;;5007742;28;20041;-65
2022/07/04 05:51:37;;;;;;;6.23;2.57;;;23.60;60.10;;;;;;5007683;28;20081;-65
2022/07/04 05:54:03;;;;;;;7.97;2.57;;;23.10;59.90;;;;;;5008720;28;20486;-65
2022/07/04 05:56:30;;;;;;;5.83;1.80;;;22.50;61.60;;;;;;5008388;28;20052;-66
2022/07/04 05:58:55;;;;;;;7.27;2.70;;;22.00;62.70;;;;;;5007727;28;20070;-66
2022/07/04 06:01:21;;;;;;;8.23;5.53;;;21.20;63.70;;;;;;4991972;28;20038;-66
2022/07/04 06:03:47;;;;;;;5.63;3.63;;;20.20;66.00;;;;;;4991736;28;20495;-66
2022/07/04 06:06:13;;;;;;;6.90;2.50;;;19.40;68.70;;;;;;4991720;28;20077;-66
2022/07/04 06:08:39;;;;;;;6.07;2.57;;;18.90;70.80;;;;;;4989689;28;20136;-66
2022/07/04 06:11:05;;;;;;;6.60;2.03;;;18.60;71.60;;;;;;5006553;28;20172;-65
2022/07/04 06:13:30;;;;;;;9.60;2.30;;;18.30;72.60;;;;;;4986252;28;20052;-65
2022/07/04 06:15:56;;;;;;;5.80;1.90;;;18.10;73.60;;;;;;5001109;28;20056;-65
2022/07/04 06:18:22;;;;;;;4.53;1.57;;;18.00;74.20;;;;;;5003759;28;20092;-65
2022/07/04 06:20:47;;;;;;;9.83;2.27;;;17.90;74.60;;;;;;4974731;28;20042;-65
2022/07/04 06:23:13;;;;;;;4.03;1.77;;;17.90;75.30;;;;;;4978786;28;20050;-65
2022/07/04 06:25:39;;;;;;;10.20;2.90;;;17.90;75.30;;;;;;5007962;28;20540;-65
2022/07/04 06:28:05;;;;;;;6.83;2.27;;;18.40;76.00;;;;;;5007844;28;20438;-65
2022/07/04 06:30:30;;;;;;;7.07;1.90;;;18.90;73.40;;;;;;4991212;28;20048;-65
2022/07/04 06:32:57;;;;;;;8.47;1.97;;;19.00;72.70;;;;;;4996525;28;20178;-65
2022/07/04 06:38:11;;;;;;;5.37;1.80;;;18.80;73.10;;;;;;4999670;28;20304;-66
2022/07/04 06:40:37;;;;;;;3.30;1.67;;;18.60;72.70;;;;;;5007521;28;20281;-66
2022/07/04 06:43:04;;;;;;;4.03;2.10;;;18.70;73.10;;;;;;4990846;28;20315;-66
2022/07/04 06:45:30;;;;;;;4.60;1.60;;;19.60;71.20;;;;;;5007206;28;20280;-66
2022/07/04 06:47:56;;;;;;;7.47;1.70;;;20.20;69.20;;;;;;4990548;28;20308;-66
2022/07/04 06:50:21;;;;;;;4.60;1.63;;;20.80;67.70;;;;;;4991127;28;20392;-66
2022/07/04 06:52:47;;;;;;;7.23;2.40;;;21.50;66.00;;;;;;5007514;28;20042;-66
2022/07/04 06:55:13;;;;;;;4.37;1.30;;;21.80;63.00;;;;;;5006960;28;20050;-66
2022/07/04 06:57:39;;;;;;;5.07;1.10;;;21.20;63.70;;;;;;4990036;28;20058;-66
2022/07/04 07:00:07;;;;;;;3.13;1.10;;;20.80;64.60;;;;;;4990532;28;20073;-66
2022/07/04 07:02:36;;;;;;;2.63;1.73;;;20.20;65.60;;;;;;5007248;28;20046;-66
2022/07/04 07:05:03;;;;;;;2.47;0.87;;;20.00;66.60;;;;;;5006795;28;20133;-66
2022/07/04 07:07:30;;;;;;;2.97;2.20;;;20.30;66.30;;;;;;4990313;28;20091;-66
2022/07/04 07:09:56;;;;;;;2.70;1.50;;;20.40;64.20;;;;;;5006824;28;20037;-66
2022/07/04 07:12:22;;;;;;;2.37;1.00;;;20.60;65.30;;;;;;4987946;28;20039;-66
2022/07/04 07:14:49;;;;;;;2.73;0.87;;;20.90;64.90;;;;;;4999672;28;20513;-66
2022/07/04 07:17:15;;;;;;;2.40;1.27;;;21.00;63.80;;;;;;5006612;28;20046;-66
2022/07/04 07:19:45;;;;;;;2.63;0.83;;;21.10;63.20;;;;;;5006220;28;20061;-67
2022/07/04 07:22:11;;;;;;;1.90;0.90;;;21.00;63.10;;;;;;5002710;28;20054;-65
2022/07/04 07:24:37;;;;;;;2.63;1.00;;;21.10;63.10;;;;;;4987707;28;20093;-65
2022/07/04 07:27:03;;;;;;;1.97;0.50;;;21.10;62.50;;;;;;5006352;28;20486;-65
2022/07/04 07:29:29;;;;;;;2.10;0.50;;;21.00;61.70;;;;;;4990278;28;20041;-65
2022/07/04 07:31:54;;;;;;;3.50;0.77;;;20.80;62.20;;;;;;5012658;28;20237;-65
2022/07/04 07:34:20;;;;;;;2.97;0.60;;;20.60;62.30;;;;;;5007452;28;20038;-65
2022/07/04 07:36:46;;;;;;;2.67;0.50;;;20.30;63.30;;;;;;5007016;28;20041;-65
2022/07/04 07:39:12;;;;;;;4.17;0.80;;;20.30;64.00;;;;;;5005802;28;20045;-65
2022/07/04 07:41:37;;;;;;;4.33;0.63;;;20.30;63.80;;;;;;5006305;28;20520;-65
2022/07/04 07:44:03;;;;;;;3.00;0.77;;;20.30;64.60;;;;;;5006793;28;20100;-65
2022/07/04 07:46:29;;;;;;;2.43;0.67;;;20.40;63.60;;;;;;5006997;28;20105;-65
2022/07/04 07:48:55;;;;;;;1.50;0.57;;;20.30;63.10;;;;;;5006366;28;20049;-65
2022/07/04 07:51:20;;;;;;;4.83;0.77;;;20.20;63.20;;;;;;4989911;28;20053;-65
2022/07/04 07:53:46;;;;;;;2.93;0.70;;;20.10;64.00;;;;;;5006285;28;20148;-65
2022/07/04 07:56:13;;;;;;;5.53;0.97;;;20.10;63.90;;;;;;4989681;28;20049;-65
2022/07/04 07:58:38;;;;;;;2.50;0.60;;;20.20;63.80;;;;;;4973603;28;20637;-65
2022/07/04 08:01:04;;;;;;;2.03;0.50;;;20.20;63.30;;;;;;5006052;28;20091;-65
2022/07/04 08:06:15;;;;;;;1.90;0.40;;;20.10;62.90;;;;;;5003003;28;20400;-65
2022/07/04 08:08:44;;;;;;;2.80;0.60;;;20.20;63.00;;;;;;5002472;28;20050;-66
2022/07/04 08:11:11;;;;;;;2.67;0.60;;;20.50;62.50;;;;;;5021972;28;20038;-66
2022/07/04 08:13:38;;;;;;;2.63;0.50;;;20.70;60.90;;;;;;4996191;28;20090;-66
2022/07/04 08:16:05;;;;;;;1.50;0.40;;;20.80;61.50;;;;;;5005945;28;20141;-66
2022/07/04 08:18:32;;;;;;;1.10;0.40;;;21.10;61.00;;;;;;5005435;28;20092;-66
2022/07/04 08:20:57;;;;;;;3.57;0.50;;;21.00;60.40;;;;;;4998454;28;20077;-66
2022/07/04 08:23:23;;;;;;;2.40;0.40;;;21.20;60.30;;;;;;5002342;28;20092;-66
2022/07/04 08:25:49;;;;;;;3.20;0.67;;;21.10;59.10;;;;;;4989462;28;20038;-66
2022/07/04 08:28:14;;;;;;;1.43;0.40;;;21.20;58.90;;;;;;5005860;28;20103;-66
2022/07/04 08:30:40;;;;;;;2.57;0.53;;;21.30;57.50;;;;;;5005468;28;20042;-66
2022/07/04 08:33:06;;;;;;;3.13;0.63;;;21.40;57.90;;;;;;5005271;28;20495;-66
2022/07/04 08:35:33;;;;;;;4.30;0.63;;;21.30;56.20;;;;;;4987647;28;20049;-66
2022/07/04 08:37:58;;;;;;;1.77;0.60;;;21.10;56.50;;;;;;5005318;28;20081;-66
2022/07/04 08:40:26;;;;;;;2.77;0.50;;;20.90;57.10;;;;;;5005515;28;20077;-66
2022/07/04 08:42:52;;;;;;;2.83;0.50;;;20.50;58.50;;;;;;4989519;28;20125;-66
2022/07/04 08:45:24;;;;;;;2.50;0.50;;;20.60;59.10;;;;;;5005983;28;20042;-66
2022/07/04 08:47:54;;;;;;;2.27;0.40;;;20.50;58.30;;;;;;4988932;28;20050;-66
2022/07/04 08:50:29;;;;;;;2.80;0.50;;;20.40;58.30;;;;;;5005322;28;20084;-66
2022/07/04 08:52:59;;;;;;;1.92;0.80;;;20.30;59.00;;;;;;5005910;28;20042;-66
2022/07/04 08:58:25;;;;;;;3.75;0.70;;;20.20;60.00;;;;;;4993237;28;20065;-66
2022/07/04 09:00:59;;;;;;;1.50;0.60;;;20.10;59.90;;;;;;5002868;28;20512;-67
2022/07/04 09:03:26;;;;;;;3.13;0.93;;;20.00;60.10;;;;;;5012972;28;20054;-67
2022/07/04 09:05:52;;;;;;;4.83;0.97;;;19.80;61.30;;;;;;5004590;28;20038;-67
2022/07/04 09:08:18;;;;;;;4.03;0.70;;;19.70;62.40;;;;;;5005117;28;20045;-67
2022/07/04 09:10:44;;;;;;;2.63;1.00;;;19.70;62.30;;;;;;5017065;28;20042;-67
2022/07/04 09:13:12;;;;;;;1.90;0.53;;;19.60;61.80;;;;;;5005477;28;20494;-67
2022/07/04 09:15:39;;;;;;;4.17;1.40;;;19.40;60.00;;;;;;5000925;28;20510;-67
2022/07/04 09:18:05;;;;;;;3.73;0.70;;;19.30;60.70;;;;;;4998133;28;20037;-67
2022/07/04 09:20:33;;;;;;;1.00;0.40;;;19.30;61.40;;;;;;5001422;28;20046;-67
2022/07/04 09:22:59;;;;;;;1.47;0.70;;;19.40;61.70;;;;;;4987786;28;20046;-67
2022/07/04 09:25:25;;;;;;;2.70;0.70;;;19.40;61.10;;;;;;5005083;28;20437;-66
2022/07/04 09:27:54;;;;;;;1.97;0.80;;;19.30;60.40;;;;;;4989373;28;20410;-66
2022/07/04 09:30:22;;;;;;;2.50;0.70;;;19.00;60.60;;;;;;5008444;28;20277;-66
2022/07/04 09:33:00;;;;;;;2.87;1.03;;;18.90;60.40;;;;;;5005267;28;20100;-67
2022/07/04 09:35:28;;;;;;;3.97;0.77;;;18.90;59.90;;;;;;4999917;28;20297;-66
2022/07/04 09:37:56;;;;;;;3.40;0.53;;;19.30;59.70;;;;;;5004943;28;20332;-66
2022/07/04 09:40:30;;;;;;;2.03;1.03;;;19.60;57.70;;;;;;5004994;28;20281;-67
2022/07/04 09:42:58;;;;;;;0.93;0.38;;;19.90;57.30;;;;;;5005019;28;20309;-67
2022/07/04 09:45:24;;;;;;;2.40;0.70;;;20.30;58.40;;;;;;4989828;28;20045;-67
2022/07/04 09:47:57;;;;;;;2.73;0.80;;;20.60;58.00;;;;;;5008414;28;20061;-67
2022/07/04 09:50:25;;;;;;;1.77;0.50;;;20.90;57.70;;;;;;4993525;28;20491;-67
2022/07/04 09:52:53;;;;;;;2.37;0.53;;;20.90;56.60;;;;;;5008948;28;20069;-67
2022/07/04 09:55:25;;;;;;;2.80;0.50;;;21.10;57.30;;;;;;5008641;28;20180;-67
2022/07/04 09:57:52;;;;;;;3.73;0.40;;;21.20;56.20;;;;;;5007740;28;20065;-67
2022/07/04 10:00:26;;;;;;;1.37;0.40;;;21.30;55.70;;;;;;4991813;28;20057;-67
2022/07/04 10:02:53;;;;;;;1.20;0.40;;;21.40;54.00;;;;;;5008245;28;20041;-67
2022/07/04 10:05:28;;;;;;;2.30;0.53;;;21.40;55.60;;;;;;4992087;28;20042;-67
2022/07/04 10:07:56;;;;;;;1.73;0.50;;;21.70;54.50;;;;;;5000671;28;20077;-67
2022/07/04 10:10:39;;;;;;;3.63;0.30;;;21.50;51.50;;;;;;5003187;28;20085;-67
2022/07/04 10:13:10;;;;;;;3.20;0.50;;;21.40;52.00;;;;;;4991907;28;20129;-67
2022/07/04 10:15:42;;;;;;;1.40;0.53;;;21.50;50.90;;;;;;5008256;28;20041;-66
2022/07/04 10:18:09;;;;;;;1.77;0.30;;;21.70;52.20;;;;;;5007591;28;20081;-66
2022/07/04 10:20:35;;;;;;;1.93;0.30;;;21.80;50.80;;;;;;5004257;28;20566;-66
2022/07/04 10:23:01;;;;;;;1.73;0.40;;;21.60;51.00;;;;;;4991354;28;20053;-66
2022/07/04 10:25:27;;;;;;;3.30;0.77;;;21.50;52.10;;;;;;4997703;28;20052;-66
2022/07/04 10:27:53;;;;;;;2.47;0.60;;;21.50;53.10;;;;;;5007694;28;20096;-67
2022/07/04 10:30:32;;;;;;;1.10;0.40;;;21.60;52.80;;;;;;4991355;28;20042;-67
2022/07/04 10:33:01;;;;;;;1.97;0.40;;;21.70;53.50;;;;;;5008400;28;20103;-66
2022/07/04 10:36:32;;;;;;;3.03;0.70;;;21.60;51.90;;;;;;5005978;28;20129;-66
2022/07/04 10:39:03;;;;;;;1.10;0.53;;;21.50;52.10;;;;;;4950368;28;20617;-66
2022/07/04 10:41:31;;;;;;;2.77;0.57;;;21.50;51.50;;;;;;4941162;28;20405;-67
2022/07/04 10:44:06;;;;;;;1.30;0.30;;;21.30;48.70;;;;;;4973343;28;20585;-66
2022/07/04 10:46:37;;;;;;;2.50;0.30;;;21.20;50.00;;;;;;5007110;28;20069;-66
2022/07/04 10:49:15;;;;;;;1.73;0.60;;;21.20;50.00;;;;;;5007572;28;20196;-66
2022/07/04 10:51:51;;;;;;;3.43;0.40;;;21.30;50.40;;;;;;5007111;28;20042;-66
2022/07/04 10:54:38;;;;;;;3.77;0.40;;;21.40;50.70;;;;;;5007109;28;20115;-67
2022/07/04 10:57:13;;;;;;;3.33;0.50;;;21.40;50.20;;;;;;5005853;28;20494;-67
2022/07/04 10:59:40;;;;;;;3.03;0.68;;;21.30;51.50;;;;;;5006922;28;20046;-66
2022/07/04 11:02:06;;;;;;;3.57;1.03;;;21.40;51.20;;;;;;5007662;28;20393;-66
2022/07/04 11:04:44;;;;;;;2.83;0.57;;;21.30;51.00;;;;;;5007136;28;20037;-66
2022/07/04 11:07:09;;;;;;;2.93;0.50;;;21.40;50.70;;;;;;4990424;28;20081;-66
2022/07/04 11:09:36;;;;;;;2.30;0.63;;;21.30;52.40;;;;;;4990546;28;20073;-66
2022/07/04 11:12:05;;;;;;;2.53;0.60;;;21.50;52.50;;;;;;5007299;28;20041;-66
2022/07/04 11:14:45;;;;;;;2.83;0.50;;;21.70;52.70;;;;;;5007179;28;20132;-66
2022/07/04 11:17:32;;;;;;;2.00;0.60;;;21.70;52.20;;;;;;5006917;28;20503;-66
2022/07/04 11:20:07;;;;;;;2.20;0.37;;;21.50;51.80;;;;;;5006953;28;20438;-66
2022/07/04 11:22:33;;;;;;;2.83;0.43;;;21.40;52.90;;;;;;4997567;28;20037;-66
2022/07/04 11:25:00;;;;;;;1.37;0.30;;;21.50;52.90;;;;;;4996258;28;20108;-66
2022/07/04 11:27:25;;;;;;;3.77;0.73;;;21.40;53.60;;;;;;4990372;28;20380;-66
2022/07/04 11:29:55;;;;;;;1.77;0.30;;;21.60;54.20;;;;;;4993039;28;20072;-66
2022/07/04 11:32:29;;;;;;;1.60;0.50;;;21.80;52.10;;;;;;5007540;28;20042;-66
2022/07/04 11:34:55;;;;;;;1.95;0.40;;;21.90;52.00;;;;;;5007052;28;20609;-66
2022/07/04 11:37:21;;;;;;;1.93;0.33;;;21.90;51.10;;;;;;4993564;28;20101;-66
2022/07/04 11:39:51;;;;;;;1.53;0.30;;;21.90;50.30;;;;;;5005942;28;20141;-66
2022/07/04 11:45:05;;;;;;;1.77;0.40;;;22.00;52.10;;;;;;5008559;28;20143;-66
2022/07/04 11:47:36;;;;;;;3.30;0.20;;;22.00;50.40;;;;;;4988744;28;20414;-66
2022/07/04 11:50:06;;;;;;;2.67;0.30;;;21.90;49.10;;;;;;5006428;28;20049;-66
2022/07/04 11:52:41;;;;;;;2.17;0.30;;;22.00;47.10;;;;;;5006271;28;20092;-65
2022/07/04 11:55:10;;;;;;;1.38;0.30;;;22.10;48.20;;;;;;5006266;28;20050;-65
2022/07/04 11:57:41;;;;;;;2.33;0.20;;;22.00;47.80;;;;;;4989609;28;21252;-65
2022/07/04 12:00:12;;;;;;;1.37;0.30;;;22.00;48.40;;;;;;5005882;28;20644;-65
2022/07/04 12:02:39;;;;;;;1.80;0.30;;;22.00;48.10;;;;;;5006268;28;20050;-66
2022/07/04 12:05:08;;;;;;;0.60;0.10;;;21.90;48.60;;;;;;4990752;28;20494;-65
2022/07/04 12:07:35;;;;;;;1.50;0.43;;;22.10;49.00;;;;;;5005651;28;20042;-65
2022/07/04 12:10:26;;;;;;;1.43;0.20;;;22.10;48.40;;;;;;5022139;28;20034;-65
2022/07/04 12:12:54;;;;;;;0.73;0.30;;;22.00;48.40;;;;;;4995102;28;20478;-65
2022/07/04 12:15:24;;;;;;;2.10;0.33;;;22.00;49.30;;;;;;5006348;28;20125;-65
2022/07/04 12:17:55;;;;;;;1.70;0.37;;;22.10;48.80;;;;;;5005885;28;20148;-65
2022/07/04 12:20:23;;;;;;;2.47;0.30;;;22.10;46.60;;;;;;5003713;28;20099;-65
2022/07/04 12:22:58;;;;;;;1.47;0.30;;;22.10;47.80;;;;;;4998270;28;20042;-66
2022/07/04 12:25:25;;;;;;;1.10;0.20;;;22.20;49.90;;;;;;5003238;28;20398;-66
2022/07/04 12:27:53;;;;;;;2.03;0.20;;;22.10;48.60;;;;;;5006161;28;20100;-65
2022/07/04 12:30:18;;;;;;;1.83;0.40;;;22.00;50.00;;;;;;4988959;28;20253;-66
2022/07/04 12:32:53;;;;;;;3.00;0.30;;;22.30;49.90;;;;;;4976149;28;20250;-66
2022/07/04 12:35:36;;;;;;;1.45;0.35;;;22.20;48.80;;;;;;5005668;28;20398;-66
2022/07/04 12:38:05;;;;;;;1.57;0.30;;;22.10;50.00;;;;;;5018454;28;20057;-66
2022/07/04 12:40:31;;;;;;;1.37;0.30;;;22.40;49.90;;;;;;5005205;28;20045;-66
2022/07/04 12:42:58;;;;;;;2.37;0.40;;;22.30;49.90;;;;;;5005624;28;20042;-66
2022/07/04 12:45:26;;;;;;;1.97;0.40;;;22.20;50.00;;;;;;5005621;28;20541;-66
2022/07/04 12:47:53;;;;;;;3.37;0.40;;;22.20;50.60;;;;;;5005588;28;20085;-66
2022/07/04 12:50:28;;;;;;;3.80;0.30;;;22.40;49.40;;;;;;4986828;28;20144;-66
2022/07/04 12:52:54;;;;;;;;;;;22.30;49.30;;;;;;5002713;28;20050;-67
2022/07/04 12:55:19;;;;;;;1.00;0.20;;;22.40;49.90;;;;;;4997849;28;20501;-67
2022/07/04 12:57:45;;;;;;;1.47;0.20;;;22.50;50.50;;;;;;5001223;28;20121;-67
2022/07/04 13:00:12;;;;;;;2.30;0.20;;;22.50;49.10;;;;;;4987177;28;20143;-67
2022/07/04 13:02:38;;;;;;;2.00;0.40;;;22.50;48.80;;;;;;4993156;28;20038;-67
2022/07/04 13:05:04;;;;;;;1.57;0.30;;;22.60;49.50;;;;;;5005600;28;20068;-66
2022/07/04 13:07:29;;;;;;;4.30;0.50;;;22.50;49.50;;;;;;5000754;28;20481;-67
2022/07/04 13:09:55;;;;;;;2.50;0.20;;;22.60;49.30;;;;;;5004980;28;20069;-67